sensor_id;sensor_type;location;lat;lon;timestamp;noise_LAeq;noise_LA_min;noise_LA_max;noise_LA01;noise_LA95
60031;Laerm;45901;47.600;9.890;2023-02-10T00:00:30;39.68;36.20;47.20;;
60031;Laerm;45901;47.600;9.890;2023-02-10T00:02:57;39.25;36.69;41.89;;
60031;Laerm;45901;47.600;9.890;2023-02-10T00:05:24;39.18;36.20;41.53;;
60031;Laerm;45901;47.600;9.890;2023-02-10T00:07:53;39.52;36.45;45.11;;
60031;Laerm;45901;47.600;9.890;2023-02-10T00:10:20;39.23;36.45;41.68;;
60031;Laerm;45901;47.600;9.890;2023-02-10T00:12:47;39.23;35.66;42.16;;
60031;Laerm;45901;47.600;9.890;2023-02-10T00:15:16;39.22;35.94;45.83;;
60031;Laerm;45901;47.600;9.890;2023-02-10T00:17:43;39.23;36.45;41.96;;
60031;Laerm;45901;47.600;9.890;2023-02-10T00:20:10;39.86;36.45;42.53;;
60031;Laerm;45901;47.600;9.890;2023-02-10T00:22:38;39.10;36.45;41.22;;
60031;Laerm;45901;47.600;9.890;2023-02-10T00:25:05;39.36;36.45;43.44;;
60031;Laerm;45901;47.600;9.890;2023-02-10T00:27:33;39.14;35.94;41.30;;
60031;Laerm;45901;47.600;9.890;2023-02-10T00:30:00;39.30;36.20;45.97;;
60031;Laerm;45901;47.600;9.890;2023-02-10T00:32:28;39.12;35.94;41.14;;
60031;Laerm;45901;47.600;9.890;2023-02-10T00:34:55;39.08;36.20;41.22;;
60031;Laerm;45901;47.600;9.890;2023-02-10T00:37:22;39.08;36.20;41.14;;
60031;Laerm;45901;47.600;9.890;2023-02-10T00:39:50;39.12;36.20;41.22;;
60031;Laerm;45901;47.600;9.890;2023-02-10T00:42:17;39.13;35.94;41.38;;
60031;Laerm;45901;47.600;9.890;2023-02-10T00:44:44;39.24;35.94;41.30;;
60031;Laerm;45901;47.600;9.890;2023-02-10T00:47:12;39.42;36.45;46.82;;
60031;Laerm;45901;47.600;9.890;2023-02-10T00:49:40;39.19;35.86;41.38;;
60031;Laerm;45901;47.600;9.890;2023-02-10T00:52:08;39.18;36.20;41.53;;
60031;Laerm;45901;47.600;9.890;2023-02-10T00:54:35;39.22;36.45;41.22;;
60031;Laerm;45901;47.600;9.890;2023-02-10T00:57:03;39.23;36.20;41.46;;
60031;Laerm;45901;47.600;9.890;2023-02-10T00:59:30;39.22;35.94;41.38;;
60031;Laerm;45901;47.600;9.890;2023-02-10T01:01:57;39.76;36.45;48.51;;
60031;Laerm;45901;47.600;9.890;2023-02-10T01:04:25;39.26;36.20;41.30;;
60031;Laerm;45901;47.600;9.890;2023-02-10T01:06:53;39.23;36.45;41.53;;
60031;Laerm;45901;47.600;9.890;2023-02-10T01:09:20;39.28;36.45;41.38;;
60031;Laerm;45901;47.600;9.890;2023-02-10T01:11:47;39.28;35.36;41.30;;
60031;Laerm;45901;47.600;9.890;2023-02-10T01:14:15;39.35;36.69;41.38;;
60031;Laerm;45901;47.600;9.890;2023-02-10T01:16:42;39.42;36.45;46.50;;
60031;Laerm;45901;47.600;9.890;2023-02-10T01:19:09;39.35;36.45;41.30;;
60031;Laerm;45901;47.600;9.890;2023-02-10T01:21:37;39.43;36.69;41.48;;
60031;Laerm;45901;47.600;9.890;2023-02-10T01:24:06;39.34;36.20;41.61;;
60031;Laerm;45901;47.600;9.890;2023-02-10T01:26:34;39.35;36.45;44.54;;
60031;Laerm;45901;47.600;9.890;2023-02-10T01:29:01;39.34;36.20;41.14;;
60031;Laerm;45901;47.600;9.890;2023-02-10T01:31:28;39.46;36.69;47.48;;
60031;Laerm;45901;47.600;9.890;2023-02-10T01:33:55;39.34;36.69;41.82;;
60031;Laerm;45901;47.600;9.890;2023-02-10T01:36:24;39.34;35.94;41.30;;
60031;Laerm;45901;47.600;9.890;2023-02-10T01:38:52;39.30;36.69;41.75;;
60031;Laerm;45901;47.600;9.890;2023-02-10T01:41:22;39.27;36.69;41.61;;
60031;Laerm;45901;47.600;9.890;2023-02-10T01:44:05;39.30;36.69;41.53;;
60031;Laerm;45901;47.600;9.890;2023-02-10T01:46:34;39.54;36.20;47.08;;
60031;Laerm;45901;47.600;9.890;2023-02-10T01:49:05;39.32;36.69;41.30;;
60031;Laerm;45901;47.600;9.890;2023-02-10T01:51:38;39.34;36.45;41.38;;
60031;Laerm;45901;47.600;9.890;2023-02-10T01:54:11;39.37;36.20;41.53;;
60031;Laerm;45901;47.600;9.890;2023-02-10T01:56:42;39.36;36.20;41.75;;
60031;Laerm;45901;47.600;9.890;2023-02-10T01:59:09;39.36;36.45;41.53;;
60031;Laerm;45901;47.600;9.890;2023-02-10T02:01:36;39.84;36.69;48.39;;
60031;Laerm;45901;47.600;9.890;2023-02-10T02:04:04;39.27;36.20;41.38;;
60031;Laerm;45901;47.600;9.890;2023-02-10T02:06:32;39.27;35.94;41.75;;
60031;Laerm;45901;47.600;9.890;2023-02-10T02:09:00;39.25;36.69;41.46;;
60031;Laerm;45901;47.600;9.890;2023-02-10T02:11:32;39.25;36.69;41.38;;
60031;Laerm;45901;47.600;9.890;2023-02-10T02:14:18;39.29;36.91;41.53;;
60031;Laerm;45901;47.600;9.890;2023-02-10T02:17:02;39.38;36.69;47.44;;
60031;Laerm;45901;47.600;9.890;2023-02-10T02:20:06;39.34;36.69;41.53;;
60031;Laerm;45901;47.600;9.890;2023-02-10T02:23:17;39.35;35.94;41.61;;
60031;Laerm;45901;47.600;9.890;2023-02-10T02:29:24;39.34;36.20;42.09;;
60031;Laerm;45901;47.600;9.890;2023-02-10T02:32:01;39.53;36.69;47.74;;
60031;Laerm;45901;47.600;9.890;2023-02-10T02:34:38;39.74;36.56;41.96;;
60031;Laerm;45901;47.600;9.890;2023-02-10T02:37:10;39.47;36.69;41.61;;
60031;Laerm;45901;47.600;9.890;2023-02-10T02:39:40;39.49;36.69;41.61;;
60031;Laerm;45901;47.600;9.890;2023-02-10T02:42:18;39.51;36.45;41.68;;
60031;Laerm;45901;47.600;9.890;2023-02-10T02:44:48;39.53;36.69;47.93;;
60031;Laerm;45901;47.600;9.890;2023-02-10T02:47:38;39.58;36.69;46.84;;
60031;Laerm;45901;47.600;9.890;2023-02-10T02:50:22;39.37;36.69;41.82;;
60031;Laerm;45901;47.600;9.890;2023-02-10T02:53:19;39.42;35.94;41.55;;
60031;Laerm;45901;47.600;9.890;2023-02-10T02:56:02;39.38;36.45;41.46;;
60031;Laerm;45901;47.600;9.890;2023-02-10T02:58:43;39.35;36.45;41.46;;
60031;Laerm;45901;47.600;9.890;2023-02-10T03:01:16;40.27;36.69;50.21;;
60031;Laerm;45901;47.600;9.890;2023-02-10T03:03:48;39.40;36.20;41.75;;
60031;Laerm;45901;47.600;9.890;2023-02-10T03:06:15;39.55;36.45;43.44;;
60031;Laerm;45901;47.600;9.890;2023-02-10T03:08:42;39.40;35.94;41.38;;
60031;Laerm;45901;47.600;9.890;2023-02-10T03:11:09;39.42;36.69;41.46;;
60031;Laerm;45901;47.600;9.890;2023-02-10T03:13:36;39.41;36.77;41.46;;
60031;Laerm;45901;47.600;9.890;2023-02-10T03:16:04;39.60;36.91;46.57;;
60031;Laerm;45901;47.600;9.890;2023-02-10T03:18:32;39.52;36.45;41.82;;
60031;Laerm;45901;47.600;9.890;2023-02-10T03:21:00;39.80;36.69;44.07;;
60031;Laerm;45901;47.600;9.890;2023-02-10T03:23:27;39.50;36.69;41.46;;
60031;Laerm;45901;47.600;9.890;2023-02-10T03:25:57;39.64;36.91;42.82;;
60031;Laerm;45901;47.600;9.890;2023-02-10T03:28:26;39.40;36.45;41.75;;
60031;Laerm;45901;47.600;9.890;2023-02-10T03:30:53;39.53;36.45;47.44;;
60031;Laerm;45901;47.600;9.890;2023-02-10T03:33:21;39.37;36.45;41.46;;
60031;Laerm;45901;47.600;9.890;2023-02-10T03:35:50;39.33;36.69;41.30;;
60031;Laerm;45901;47.600;9.890;2023-02-10T03:38:19;39.36;36.20;41.30;;
60031;Laerm;45901;47.600;9.890;2023-02-10T03:40:49;39.31;36.45;41.61;;
60031;Laerm;45901;47.600;9.890;2023-02-10T03:43:17;39.25;36.20;41.22;;
60031;Laerm;45901;47.600;9.890;2023-02-10T03:45:45;39.45;36.91;47.68;;
60031;Laerm;45901;47.600;9.890;2023-02-10T03:48:12;39.38;35.94;41.89;;
60031;Laerm;45901;47.600;9.890;2023-02-10T03:50:41;39.27;36.45;41.75;;
60031;Laerm;45901;47.600;9.890;2023-02-10T03:53:08;39.23;36.20;41.22;;
60031;Laerm;45901;47.600;9.890;2023-02-10T03:55:37;39.24;36.20;42.29;;
60031;Laerm;45901;47.600;9.890;2023-02-10T03:58:04;39.22;35.36;41.38;;
60031;Laerm;45901;47.600;9.890;2023-02-10T04:00:31;40.08;36.45;48.85;;
60031;Laerm;45901;47.600;9.890;2023-02-10T04:02:59;39.33;36.45;42.03;;
60031;Laerm;45901;47.600;9.890;2023-02-10T04:05:26;39.41;36.20;42.98;;
60031;Laerm;45901;47.600;9.890;2023-02-10T04:07:53;39.49;36.20;42.16;;
60031;Laerm;45901;47.600;9.890;2023-02-10T04:10:20;39.66;35.66;44.11;;
60031;Laerm;45901;47.600;9.890;2023-02-10T04:12:49;39.57;36.45;41.96;;
60031;Laerm;45901;47.600;9.890;2023-02-10T04:15:16;39.56;36.45;46.95;;
60031;Laerm;45901;47.600;9.890;2023-02-10T04:17:43;39.53;36.45;41.68;;
60031;Laerm;45901;47.600;9.890;2023-02-10T04:20:11;39.52;36.91;41.46;;
60031;Laerm;45901;47.600;9.890;2023-02-10T04:22:39;39.83;36.69;44.07;;
60031;Laerm;45901;47.600;9.890;2023-02-10T04:25:06;39.56;36.45;41.68;;
60031;Laerm;45901;47.600;9.890;2023-02-10T04:27:34;39.57;36.69;41.75;;
60031;Laerm;45901;47.600;9.890;2023-02-10T04:30:03;39.68;36.69;45.65;;
60031;Laerm;45901;47.600;9.890;2023-02-10T04:32:30;39.70;36.45;42.53;;
60031;Laerm;45901;47.600;9.890;2023-02-10T04:34:58;39.67;36.91;42.22;;
60031;Laerm;45901;47.600;9.890;2023-02-10T04:37:25;39.86;36.91;42.59;;
60031;Laerm;45901;47.600;9.890;2023-02-10T04:39:52;39.56;36.91;41.75;;
60031;Laerm;45901;47.600;9.890;2023-02-10T04:42:20;39.68;36.69;41.96;;
60031;Laerm;45901;47.600;9.890;2023-02-10T04:44:55;40.04;37.12;46.84;;
60031;Laerm;45901;47.600;9.890;2023-02-10T04:47:26;40.71;37.52;47.34;;
60031;Laerm;45901;47.600;9.890;2023-02-10T04:49:54;39.88;37.32;42.65;;
60031;Laerm;45901;47.600;9.890;2023-02-10T04:52:21;40.06;37.32;45.77;;
60031;Laerm;45901;47.600;9.890;2023-02-10T04:54:49;39.99;37.52;43.63;;
60031;Laerm;45901;47.600;9.890;2023-02-10T04:57:16;39.82;37.12;42.16;;
60031;Laerm;45901;47.600;9.890;2023-02-10T04:59:43;39.79;37.12;42.47;;
60031;Laerm;45901;47.600;9.890;2023-02-10T05:02:10;40.70;37.12;47.26;;
60031;Laerm;45901;47.600;9.890;2023-02-10T05:04:39;40.22;37.12;44.51;;
60031;Laerm;45901;47.600;9.890;2023-02-10T05:07:06;39.83;37.12;44.19;;
60031;Laerm;45901;47.600;9.890;2023-02-10T05:09:33;39.78;36.91;41.61;;
60031;Laerm;45901;47.600;9.890;2023-02-10T05:12:00;39.76;37.12;43.14;;
60031;Laerm;45901;47.600;9.890;2023-02-10T05:14:28;39.67;36.45;41.46;;
60031;Laerm;45901;47.600;9.890;2023-02-10T05:16:55;39.80;37.32;46.02;;
60031;Laerm;45901;47.600;9.890;2023-02-10T05:19:22;39.82;36.45;45.91;;
60031;Laerm;45901;47.600;9.890;2023-02-10T05:21:51;40.12;36.91;46.40;;
60031;Laerm;45901;47.600;9.890;2023-02-10T05:24:18;39.96;37.32;42.71;;
60031;Laerm;45901;47.600;9.890;2023-02-10T05:26:45;40.06;36.69;44.62;;
60031;Laerm;45901;47.600;9.890;2023-02-10T05:29:12;40.11;36.91;47.36;;
60031;Laerm;45901;47.600;9.890;2023-02-10T05:31:39;40.07;37.32;46.80;;
60031;Laerm;45901;47.600;9.890;2023-02-10T05:34:06;39.90;36.91;43.99;;
60031;Laerm;45901;47.600;9.890;2023-02-10T05:36:33;40.57;36.91;46.35;;
60031;Laerm;45901;47.600;9.890;2023-02-10T05:39:02;40.16;37.32;46.10;;
60031;Laerm;45901;47.600;9.890;2023-02-10T05:41:47;40.10;37.12;43.09;;
60031;Laerm;45901;47.600;9.890;2023-02-10T05:44:14;40.58;37.70;44.90;;
60031;Laerm;45901;47.600;9.890;2023-02-10T05:46:41;40.33;37.32;47.24;;
60031;Laerm;45901;47.600;9.890;2023-02-10T05:49:08;40.27;36.69;45.30;;
60031;Laerm;45901;47.600;9.890;2023-02-10T05:51:35;40.05;37.52;42.35;;
60031;Laerm;45901;47.600;9.890;2023-02-10T05:54:04;40.21;37.32;44.15;;
60031;Laerm;45901;47.600;9.890;2023-02-10T05:56:31;40.06;36.69;43.72;;
60031;Laerm;45901;47.600;9.890;2023-02-10T05:58:58;39.98;37.12;45.45;;
60031;Laerm;45901;47.600;9.890;2023-02-10T06:01:26;40.99;37.32;48.28;;
60031;Laerm;45901;47.600;9.890;2023-02-10T06:03:53;40.04;37.35;44.73;;
60031;Laerm;45901;47.600;9.890;2023-02-10T06:06:20;40.23;37.52;47.30;;
60031;Laerm;45901;47.600;9.890;2023-02-10T06:08:48;40.09;37.12;43.77;;
60031;Laerm;45901;47.600;9.890;2023-02-10T06:11:16;40.33;37.52;44.19;;
60031;Laerm;45901;47.600;9.890;2023-02-10T06:13:44;40.38;37.70;44.51;;
60031;Laerm;45901;47.600;9.890;2023-02-10T06:16:11;40.30;37.52;45.51;;
60031;Laerm;45901;47.600;9.890;2023-02-10T06:18:38;40.62;38.05;43.49;;
60031;Laerm;45901;47.600;9.890;2023-02-10T06:21:05;40.75;38.05;45.60;;
60031;Laerm;45901;47.600;9.890;2023-02-10T06:23:33;40.61;37.70;43.44;;
60031;Laerm;45901;47.600;9.890;2023-02-10T06:26:00;40.55;37.88;51.44;;
60031;Laerm;45901;47.600;9.890;2023-02-10T06:28:28;40.95;38.37;50.07;;
60031;Laerm;45901;47.600;9.890;2023-02-10T06:30:55;40.73;37.70;47.06;;
60031;Laerm;45901;47.600;9.890;2023-02-10T06:33:22;40.39;37.52;44.11;;
60031;Laerm;45901;47.600;9.890;2023-02-10T06:35:50;41.48;39.08;53.81;;
60031;Laerm;45901;47.600;9.890;2023-02-10T06:38:18;41.80;38.52;51.87;;
60031;Laerm;45901;47.600;9.890;2023-02-10T06:40:45;40.76;37.70;45.39;;
60031;Laerm;45901;47.600;9.890;2023-02-10T06:43:12;40.57;38.37;45.54;;
60031;Laerm;45901;47.600;9.890;2023-02-10T06:45:40;40.87;38.05;45.45;;
60031;Laerm;45901;47.600;9.890;2023-02-10T06:48:08;40.38;38.05;43.05;;
60031;Laerm;45901;47.600;9.890;2023-02-10T06:50:35;40.72;38.37;46.62;;
60031;Laerm;45901;47.600;9.890;2023-02-10T06:53:03;40.34;38.37;41.96;;
60031;Laerm;45901;47.600;9.890;2023-02-10T06:55:30;40.36;38.05;43.34;;
60031;Laerm;45901;47.600;9.890;2023-02-10T06:57:58;40.52;37.88;44.87;;
60031;Laerm;45901;47.600;9.890;2023-02-10T07:00:26;40.89;37.70;47.70;;
60031;Laerm;45901;47.600;9.890;2023-02-10T07:02:55;40.79;37.88;55.77;;
60031;Laerm;45901;47.600;9.890;2023-02-10T07:05:22;40.87;38.05;44.83;;
60031;Laerm;45901;47.600;9.890;2023-02-10T07:07:49;40.23;37.32;45.97;;
60031;Laerm;45901;47.600;9.890;2023-02-10T07:10:19;40.36;38.05;42.98;;
60031;Laerm;45901;47.600;9.890;2023-02-10T07:12:46;40.38;37.52;43.29;;
60031;Laerm;45901;47.600;9.890;2023-02-10T07:15:14;40.51;37.88;45.91;;
60031;Laerm;45901;47.600;9.890;2023-02-10T07:17:42;40.46;37.70;43.54;;
60031;Laerm;45901;47.600;9.890;2023-02-10T07:20:11;40.31;37.87;42.47;;
60031;Laerm;45901;47.600;9.890;2023-02-10T07:22:39;40.87;37.88;52.21;;
60031;Laerm;45901;47.600;9.890;2023-02-10T07:25:06;40.53;38.05;43.77;;
60031;Laerm;45901;47.600;9.890;2023-02-10T07:27:33;40.46;38.05;45.20;;
60031;Laerm;45901;47.600;9.890;2023-02-10T07:30:00;40.79;38.05;50.14;;
60031;Laerm;45901;47.600;9.890;2023-02-10T07:32:28;40.50;38.21;46.93;;
60031;Laerm;45901;47.600;9.890;2023-02-10T07:34:55;40.39;37.88;44.65;;
60031;Laerm;45901;47.600;9.890;2023-02-10T07:37:23;40.21;37.32;42.71;;
60031;Laerm;45901;47.600;9.890;2023-02-10T07:39:52;40.36;37.70;44.42;;
60031;Laerm;45901;47.600;9.890;2023-02-10T07:42:19;40.32;37.70;53.56;;
60031;Laerm;45901;47.600;9.890;2023-02-10T07:44:46;40.58;37.70;46.80;;
60031;Laerm;45901;47.600;9.890;2023-02-10T07:47:13;40.67;37.88;46.97;;
60031;Laerm;45901;47.600;9.890;2023-02-10T07:49:41;40.49;38.05;46.33;;
60031;Laerm;45901;47.600;9.890;2023-02-10T07:52:08;40.45;37.88;45.07;;
60031;Laerm;45901;47.600;9.890;2023-02-10T07:54:36;40.38;37.88;42.53;;
60031;Laerm;45901;47.600;9.890;2023-02-10T07:57:03;40.59;37.88;45.20;;
60031;Laerm;45901;47.600;9.890;2023-02-10T07:59:31;40.82;38.05;46.43;;
60031;Laerm;45901;47.600;9.890;2023-02-10T08:01:58;41.22;37.12;48.16;;
60031;Laerm;45901;47.600;9.890;2023-02-10T08:04:25;41.66;37.70;52.64;;
60031;Laerm;45901;47.600;9.890;2023-02-10T08:06:52;40.47;37.88;44.03;;
60031;Laerm;45901;47.600;9.890;2023-02-10T08:09:22;40.77;37.88;47.98;;
60031;Laerm;45901;47.600;9.890;2023-02-10T08:11:50;40.27;37.88;43.44;;
60031;Laerm;45901;47.600;9.890;2023-02-10T08:14:17;40.60;38.18;45.23;;
60031;Laerm;45901;47.600;9.890;2023-02-10T08:16:44;40.68;37.70;46.25;;
60031;Laerm;45901;47.600;9.890;2023-02-10T08:19:12;40.35;37.52;43.39;;
60031;Laerm;45901;47.600;9.890;2023-02-10T08:21:39;40.20;37.52;42.47;;
60031;Laerm;45901;47.600;9.890;2023-02-10T08:24:08;40.84;38.05;44.19;;
60031;Laerm;45901;47.600;9.890;2023-02-10T08:26:35;40.88;38.05;44.39;;
60031;Laerm;45901;47.600;9.890;2023-02-10T08:29:03;40.64;37.87;44.58;;
60031;Laerm;45901;47.600;9.890;2023-02-10T08:31:31;40.89;38.21;46.38;;
60031;Laerm;45901;47.600;9.890;2023-02-10T08:33:58;41.51;38.05;47.77;;
60031;Laerm;45901;47.600;9.890;2023-02-10T08:36:25;40.90;38.05;44.07;;
60031;Laerm;45901;47.600;9.890;2023-02-10T08:38:52;40.90;38.21;45.27;;
60031;Laerm;45901;47.600;9.890;2023-02-10T08:41:19;41.04;38.21;48.29;;
60031;Laerm;45901;47.600;9.890;2023-02-10T08:43:46;40.34;36.91;44.73;;
60031;Laerm;45901;47.600;9.890;2023-02-10T08:46:15;40.44;37.52;46.28;;
60031;Laerm;45901;47.600;9.890;2023-02-10T08:48:42;40.23;37.70;46.84;;
60031;Laerm;45901;47.600;9.890;2023-02-10T08:51:15;40.32;37.52;43.24;;
60031;Laerm;45901;47.600;9.890;2023-02-10T08:53:42;40.19;37.52;43.86;;
60031;Laerm;45901;47.600;9.890;2023-02-10T08:56:16;40.18;37.88;43.44;;
60031;Laerm;45901;47.600;9.890;2023-02-10T08:58:43;40.27;37.32;46.55;;
60031;Laerm;45901;47.600;9.890;2023-02-10T09:01:16;41.52;37.52;54.91;;
60031;Laerm;45901;47.600;9.890;2023-02-10T09:03:43;40.32;37.70;43.77;;
60031;Laerm;45901;47.600;9.890;2023-02-10T09:06:14;40.89;37.12;43.94;;
60031;Laerm;45901;47.600;9.890;2023-02-10T09:08:42;39.96;36.91;43.39;;
60031;Laerm;45901;47.600;9.890;2023-02-10T09:11:10;39.97;37.32;43.68;;
60031;Laerm;45901;47.600;9.890;2023-02-10T09:13:37;41.19;37.32;47.40;;
60031;Laerm;45901;47.600;9.890;2023-02-10T09:16:05;40.35;37.32;45.86;;
60031;Laerm;45901;47.600;9.890;2023-02-10T09:18:34;40.52;35.94;43.86;;
60031;Laerm;45901;47.600;9.890;2023-02-10T09:21:02;41.00;37.12;46.40;;
60031;Laerm;45901;47.600;9.890;2023-02-10T09:23:29;40.16;37.32;45.36;;
60031;Laerm;45901;47.600;9.890;2023-02-10T09:25:58;39.79;36.91;44.47;;
60031;Laerm;45901;47.600;9.890;2023-02-10T09:28:26;39.59;36.20;41.75;;
60031;Laerm;45901;47.600;9.890;2023-02-10T09:30:54;40.55;37.12;50.67;;
60031;Laerm;45901;47.600;9.890;2023-02-10T09:33:22;39.86;36.69;42.98;;
60031;Laerm;45901;47.600;9.890;2023-02-10T09:35:51;39.35;36.69;45.60;;
60031;Laerm;45901;47.600;9.890;2023-02-10T09:38:18;40.35;36.69;49.92;;
60031;Laerm;45901;47.600;9.890;2023-02-10T09:40:52;40.48;37.12;55.39;;
60031;Laerm;45901;47.600;9.890;2023-02-10T09:44:05;40.54;37.12;50.29;;
60031;Laerm;45901;47.600;9.890;2023-02-10T09:46:47;40.32;37.12;51.30;;
60031;Laerm;45901;47.600;9.890;2023-02-10T09:49:41;39.82;35.94;47.95;;
60031;Laerm;45901;47.600;9.890;2023-02-10T09:52:23;39.53;36.91;45.57;;
60031;Laerm;45901;47.600;9.890;2023-02-10T09:54:54;40.64;37.12;51.77;;
60031;Laerm;45901;47.600;9.890;2023-02-10T09:57:29;39.94;36.91;45.11;;
60031;Laerm;45901;47.600;9.890;2023-02-10T10:00:02;40.55;37.52;48.45;;
60031;Laerm;45901;47.600;9.890;2023-02-10T10:02:34;40.77;37.12;50.67;;
60031;Laerm;45901;47.600;9.890;2023-02-10T10:05:14;40.18;36.91;43.77;;
60031;Laerm;45901;47.600;9.890;2023-02-10T10:07:50;40.10;36.69;52.93;;
60031;Laerm;45901;47.600;9.890;2023-02-10T10:10:24;39.79;37.32;46.38;;
60031;Laerm;45901;47.600;9.890;2023-02-10T10:12:54;39.82;37.52;43.58;;
60031;Laerm;45901;47.600;9.890;2023-02-10T10:15:28;39.96;37.52;46.82;;
60031;Laerm;45901;47.600;9.890;2023-02-10T10:18:07;39.81;37.52;42.71;;
60031;Laerm;45901;47.600;9.890;2023-02-10T10:20:50;40.88;37.52;48.29;;
60031;Laerm;45901;47.600;9.890;2023-02-10T10:23:44;41.82;37.70;47.02;;
60031;Laerm;45901;47.600;9.890;2023-02-10T10:26:35;40.56;37.52;53.79;;
60031;Laerm;45901;47.600;9.890;2023-02-10T10:29:20;41.51;37.52;58.41;;
60031;Laerm;45901;47.600;9.890;2023-02-10T10:31:53;41.68;37.52;51.45;;
60031;Laerm;45901;47.600;9.890;2023-02-10T10:34:28;40.40;37.52;45.42;;
60031;Laerm;45901;47.600;9.890;2023-02-10T10:36:57;41.54;38.21;50.72;;
60031;Laerm;45901;47.600;9.890;2023-02-10T10:39:31;40.32;37.88;44.03;;
60031;Laerm;45901;47.600;9.890;2023-02-10T10:42:05;40.43;37.52;49.47;;
60031;Laerm;45901;47.600;9.890;2023-02-10T10:44:36;40.59;37.88;47.10;;
60031;Laerm;45901;47.600;9.890;2023-02-10T10:47:13;40.94;38.21;50.01;;
60031;Laerm;45901;47.600;9.890;2023-02-10T10:49:42;41.00;38.21;51.80;;
60031;Laerm;45901;47.600;9.890;2023-02-10T10:52:25;40.68;37.70;51.79;;
60031;Laerm;45901;47.600;9.890;2023-02-10T10:54:56;40.81;37.70;48.67;;
60031;Laerm;45901;47.600;9.890;2023-02-10T10:57:25;40.53;37.88;52.78;;
60031;Laerm;45901;47.600;9.890;2023-02-10T10:59:58;41.30;38.21;52.86;;
60031;Laerm;45901;47.600;9.890;2023-02-10T11:02:29;41.93;38.21;50.41;;
60031;Laerm;45901;47.600;9.890;2023-02-10T11:05:02;41.42;38.37;48.58;;
60031;Laerm;45901;47.600;9.890;2023-02-10T11:07:32;41.41;38.18;56.83;;
60031;Laerm;45901;47.600;9.890;2023-02-10T11:10:01;41.02;38.05;55.67;;
60031;Laerm;45901;47.600;9.890;2023-02-10T11:12:32;40.88;38.37;49.44;;
60031;Laerm;45901;47.600;9.890;2023-02-10T11:15:01;40.79;37.88;46.13;;
60031;Laerm;45901;47.600;9.890;2023-02-10T11:17:34;40.58;37.32;49.51;;
60031;Laerm;45901;47.600;9.890;2023-02-10T11:20:16;40.35;37.70;43.44;;
60031;Laerm;45901;47.600;9.890;2023-02-10T11:22:56;40.48;37.52;44.27;;
60031;Laerm;45901;47.600;9.890;2023-02-10T11:25:31;40.93;37.52;49.00;;
60031;Laerm;45901;47.600;9.890;2023-02-10T11:27:59;40.49;36.69;44.80;;
60031;Laerm;45901;47.600;9.890;2023-02-10T11:30:31;40.82;37.70;62.81;;
60031;Laerm;45901;47.600;9.890;2023-02-10T11:32:59;40.81;38.05;48.99;;
60031;Laerm;45901;47.600;9.890;2023-02-10T11:35:27;40.50;37.52;44.31;;
60031;Laerm;45901;47.600;9.890;2023-02-10T11:37:58;40.42;37.88;50.07;;
60031;Laerm;45901;47.600;9.890;2023-02-10T11:40:47;40.44;38.18;47.02;;
60031;Laerm;45901;47.600;9.890;2023-02-10T11:43:16;40.37;37.32;45.80;;
60031;Laerm;45901;47.600;9.890;2023-02-10T11:45:53;40.86;37.88;47.16;;
60031;Laerm;45901;47.600;9.890;2023-02-10T11:48:22;40.15;37.70;48.57;;
60031;Laerm;45901;47.600;9.890;2023-02-10T11:51:02;40.74;38.05;54.09;;
60031;Laerm;45901;47.600;9.890;2023-02-10T11:53:33;40.54;37.32;49.29;;
60031;Laerm;45901;47.600;9.890;2023-02-10T11:56:06;40.93;37.70;51.61;;
60031;Laerm;45901;47.600;9.890;2023-02-10T11:58:59;40.77;37.70;49.57;;
60031;Laerm;45901;47.600;9.890;2023-02-10T12:01:48;40.81;38.05;51.89;;
60031;Laerm;45901;47.600;9.890;2023-02-10T12:04:56;40.76;37.70;47.36;;
60031;Laerm;45901;47.600;9.890;2023-02-10T12:07:44;43.42;39.08;54.78;;
60031;Laerm;45901;47.600;9.890;2023-02-10T12:10:20;43.77;39.58;63.58;;
60031;Laerm;45901;47.600;9.890;2023-02-10T12:12:58;40.92;38.21;47.32;;
60031;Laerm;45901;47.600;9.890;2023-02-10T12:15:38;42.05;37.88;60.42;;
60031;Laerm;45901;47.600;9.890;2023-02-10T12:18:27;40.46;37.32;47.74;;
60031;Laerm;45901;47.600;9.890;2023-02-10T12:21:16;40.61;38.05;44.51;;
60031;Laerm;45901;47.600;9.890;2023-02-10T12:24:16;41.06;37.70;50.00;;
60031;Laerm;45901;47.600;9.890;2023-02-10T12:26:49;40.90;38.02;47.36;;
60031;Laerm;45901;47.600;9.890;2023-02-10T12:29:39;40.30;37.70;44.35;;
60031;Laerm;45901;47.600;9.890;2023-02-10T12:32:21;40.70;37.12;49.98;;
60031;Laerm;45901;47.600;9.890;2023-02-10T12:35:15;40.22;37.52;42.88;;
60031;Laerm;45901;47.600;9.890;2023-02-10T12:37:58;40.20;36.69;43.19;;
60031;Laerm;45901;47.600;9.890;2023-02-10T12:40:51;40.87;37.70;46.84;;
60031;Laerm;45901;47.600;9.890;2023-02-10T12:43:49;40.22;37.52;45.83;;
60031;Laerm;45901;47.600;9.890;2023-02-10T12:46:32;40.41;37.12;48.00;;
60031;Laerm;45901;47.600;9.890;2023-02-10T12:49:20;40.50;37.32;44.39;;
60031;Laerm;45901;47.600;9.890;2023-02-10T12:52:06;40.64;37.52;47.20;;
60031;Laerm;45901;47.600;9.890;2023-02-10T12:54:47;40.30;36.91;47.59;;
60031;Laerm;45901;47.600;9.890;2023-02-10T12:57:20;40.37;37.32;44.73;;
60031;Laerm;45901;47.600;9.890;2023-02-10T12:59:56;40.64;37.12;48.80;;
60031;Laerm;45901;47.600;9.890;2023-02-10T13:02:37;40.84;37.12;50.59;;
60031;Laerm;45901;47.600;9.890;2023-02-10T13:05:10;40.28;37.12;46.55;;
60031;Laerm;45901;47.600;9.890;2023-02-10T13:07:45;40.83;37.88;46.87;;
60031;Laerm;45901;47.600;9.890;2023-02-10T13:10:26;40.50;37.70;50.06;;
60031;Laerm;45901;47.600;9.890;2023-02-10T13:12:59;40.33;36.69;45.86;;
60031;Laerm;45901;47.600;9.890;2023-02-10T13:15:32;40.56;37.88;47.74;;
60031;Laerm;45901;47.600;9.890;2023-02-10T13:18:02;40.64;37.12;44.83;;
60031;Laerm;45901;47.600;9.890;2023-02-10T13:20:40;40.61;37.70;43.77;;
60031;Laerm;45901;47.600;9.890;2023-02-10T13:23:18;42.64;37.88;53.74;;
60031;Laerm;45901;47.600;9.890;2023-02-10T13:26:25;40.51;37.88;47.00;;
60031;Laerm;45901;47.600;9.890;2023-02-10T13:29:05;40.61;37.32;48.48;;
60031;Laerm;45901;47.600;9.890;2023-02-10T13:31:54;41.17;37.70;57.57;;
60031;Laerm;45901;47.600;9.890;2023-02-10T13:34:26;40.63;37.70;45.14;;
60031;Laerm;45901;47.600;9.890;2023-02-10T13:36:59;41.27;36.98;61.05;;
60031;Laerm;45901;47.600;9.890;2023-02-10T13:43:27;40.31;37.12;44.35;;
60031;Laerm;45901;47.600;9.890;2023-02-10T13:46:00;40.38;36.69;48.46;;
60031;Laerm;45901;47.600;9.890;2023-02-10T13:48:32;40.61;37.52;53.57;;
60031;Laerm;45901;47.600;9.890;2023-02-10T13:51:05;40.36;37.52;47.77;;
60031;Laerm;45901;47.600;9.890;2023-02-10T13:53:41;40.48;37.32;47.46;;
60031;Laerm;45901;47.600;9.890;2023-02-10T13:56:23;41.39;37.88;45.23;;
60031;Laerm;45901;47.600;9.890;2023-02-10T13:58:53;40.35;36.91;46.23;;
60031;Laerm;45901;47.600;9.890;2023-02-10T14:01:39;40.73;37.12;52.22;;
60031;Laerm;45901;47.600;9.890;2023-02-10T14:04:27;40.92;36.69;44.31;;
60031;Laerm;45901;47.600;9.890;2023-02-10T14:06:59;39.98;36.45;48.13;;
60031;Laerm;45901;47.600;9.890;2023-02-10T14:09:34;40.01;36.91;45.66;;
60031;Laerm;45901;47.600;9.890;2023-02-10T14:12:23;40.16;36.91;46.66;;
60031;Laerm;45901;47.600;9.890;2023-02-10T14:14:52;40.44;37.32;46.57;;
60031;Laerm;45901;47.600;9.890;2023-02-10T14:17:22;40.03;36.91;42.98;;